createdAt,value
2023-01-11T00:02:45.903Z,98.90
2023-01-11T00:06:48.742Z,99.00
2023-01-11T00:10:56.041Z,99.00
2023-01-11T00:14:58.762Z,99.10
2023-01-11T00:19:01.740Z,99.20
2023-01-11T00:23:04.598Z,99.20
2023-01-11T00:27:08.919Z,99.40
2023-01-11T00:31:11.771Z,99.70
2023-01-11T00:35:15.205Z,99.90
2023-01-11T00:39:17.961Z,99.90
2023-01-11T00:43:39.452Z,99.90
2023-01-11T00:48:01.802Z,99.90
2023-01-11T00:52:08.710Z,99.90
2023-01-11T00:56:11.436Z,99.90
2023-01-11T01:00:16.317Z,99.90
2023-01-11T01:04:19.066Z,99.90
2023-01-11T01:08:21.786Z,99.90
2023-01-11T01:12:38.477Z,99.90
2023-01-11T01:16:42.619Z,99.90
2023-01-11T01:20:45.366Z,99.90
2023-01-11T01:24:48.095Z,99.90
2023-01-11T01:28:50.971Z,99.90
2023-01-11T01:32:55.038Z,99.90
2023-01-11T01:36:57.889Z,99.90
2023-01-11T01:41:00.656Z,99.90
2023-01-11T01:45:09.041Z,99.90
2023-01-11T01:49:16.226Z,99.80
2023-01-11T01:53:24.566Z,99.90
2023-01-11T01:57:31.466Z,99.90
2023-01-11T02:01:49.349Z,99.90
2023-01-11T02:05:54.499Z,99.90
2023-01-11T02:10:01.494Z,99.90
2023-01-11T02:14:09.952Z,99.90
2023-01-11T02:18:14.660Z,99.90
2023-01-11T02:22:54.740Z,99.90
2023-01-11T02:27:17.567Z,99.90
2023-01-11T02:31:31.277Z,99.90
2023-01-11T02:35:44.105Z,99.90
2023-01-11T02:40:00.014Z,99.90
2023-01-11T02:44:29.330Z,99.90
2023-01-11T02:48:40.595Z,99.90
2023-01-11T02:52:51.908Z,99.70
2023-01-11T02:56:59.276Z,99.80
2023-01-11T03:01:02.382Z,99.90
2023-01-11T03:05:12.437Z,99.90
2023-01-11T03:09:21.895Z,99.90
2023-01-11T03:13:36.983Z,99.90
2023-01-11T03:17:49.436Z,99.90
2023-01-11T03:22:00.606Z,99.90
2023-01-11T03:26:12.564Z,99.90
2023-01-11T03:30:21.552Z,99.90
2023-01-11T03:34:28.699Z,99.90
2023-01-11T03:38:38.667Z,99.90
2023-01-11T03:43:00.684Z,99.90
2023-01-11T03:47:07.667Z,99.90
2023-01-11T03:51:13.565Z,99.90
2023-01-11T03:55:18.295Z,99.90
2023-01-11T03:59:21.259Z,99.90
2023-01-11T04:03:26.957Z,99.90
2023-01-11T04:07:30.177Z,99.90
2023-01-11T04:11:34.259Z,99.90
2023-01-11T04:15:37.057Z,99.90
2023-01-11T04:19:39.778Z,99.90
2023-01-11T04:23:42.553Z,99.90
2023-01-11T04:27:46.648Z,99.90
2023-01-11T04:31:49.384Z,99.90
2023-01-11T04:35:52.219Z,99.90
2023-01-11T04:39:55.069Z,99.80
2023-01-11T04:43:59.165Z,99.80
2023-01-11T04:48:01.936Z,99.80
2023-01-11T04:52:04.949Z,99.70
2023-01-11T04:56:08.633Z,99.70
2023-01-11T05:00:15.758Z,99.70
2023-01-11T05:04:18.597Z,99.80
2023-01-11T05:08:21.389Z,99.90
2023-01-11T05:12:24.138Z,99.90
2023-01-11T05:16:28.583Z,99.90
2023-01-11T05:20:31.389Z,99.90
2023-01-11T05:24:34.319Z,99.90
2023-01-11T05:28:37.210Z,99.90
2023-01-11T05:32:41.370Z,99.90
2023-01-11T05:36:45.028Z,99.90
2023-01-11T05:40:55.043Z,99.90
2023-01-11T05:45:15.404Z,99.90
2023-01-11T05:49:19.565Z,99.90
2023-01-11T05:53:25.044Z,99.90
2023-01-11T05:57:27.785Z,99.90
2023-01-11T06:01:31.388Z,99.90
2023-01-11T06:05:38.576Z,99.90
2023-01-11T06:09:41.303Z,99.90
2023-01-11T06:13:44.163Z,99.90
2023-01-11T06:17:46.886Z,99.90
2023-01-11T06:21:50.915Z,99.90
2023-01-11T06:25:53.709Z,99.90
2023-01-11T06:29:56.463Z,99.90
2023-01-11T06:33:59.249Z,99.90
2023-01-11T06:38:03.320Z,99.90
2023-01-11T06:42:06.114Z,99.90
2023-01-11T06:46:12.240Z,99.90
2023-01-11T06:50:15.028Z,99.90
2023-01-11T06:54:22.962Z,99.90
2023-01-11T06:58:26.914Z,99.90
2023-01-11T07:02:29.810Z,99.90
2023-01-11T07:06:35.948Z,99.90
2023-01-11T07:10:40.024Z,99.90
2023-01-11T07:14:42.749Z,99.90
2023-01-11T07:18:46.668Z,99.90
2023-01-11T07:22:49.514Z,99.90
2023-01-11T07:26:54.875Z,99.90
2023-01-11T07:30:59.773Z,99.90
2023-01-11T07:35:03.033Z,99.90
2023-01-11T07:39:05.856Z,99.90
2023-01-11T07:43:14.665Z,99.90
2023-01-11T07:47:17.515Z,99.90
2023-01-11T07:51:24.084Z,99.90
2023-01-11T07:55:26.818Z,99.90
2023-01-11T07:59:31.297Z,99.90
2023-01-11T08:03:34.343Z,99.90
2023-01-11T08:07:37.163Z,99.90
2023-01-11T08:11:57.455Z,99.90
2023-01-11T08:16:01.635Z,99.90
2023-01-11T08:20:04.911Z,99.90
2023-01-11T08:24:08.154Z,99.90
2023-01-11T08:28:12.540Z,99.90
2023-01-11T08:32:16.650Z,99.90
2023-01-11T08:36:19.423Z,99.90
2023-01-11T08:40:24.048Z,99.90
2023-01-11T08:44:35.044Z,99.90
2023-01-11T08:48:39.320Z,99.90
2023-01-11T08:52:43.313Z,99.90
2023-01-11T08:56:46.112Z,99.90
2023-01-11T09:00:48.928Z,99.90
2023-01-11T09:04:52.981Z,99.90
2023-01-11T09:08:55.718Z,99.90
2023-01-11T09:12:58.805Z,99.90
2023-01-11T09:17:01.539Z,99.90
2023-01-11T09:21:05.781Z,99.90
2023-01-11T09:25:09.896Z,99.90
2023-01-11T09:29:12.763Z,99.90
2023-01-11T09:33:15.725Z,99.90
2023-01-11T09:37:22.599Z,99.90
2023-01-11T09:41:38.242Z,99.90
2023-01-11T09:45:46.700Z,99.90
2023-01-11T09:49:55.994Z,99.90
2023-01-11T09:54:02.030Z,99.90
2023-01-11T09:58:22.963Z,99.90
2023-01-11T10:02:38.277Z,99.90
2023-01-11T10:06:50.133Z,99.90
2023-01-11T10:18:28.383Z,99.90
2023-01-11T10:20:01.844Z,99.90
2023-01-11T10:24:12.057Z,99.90
2023-01-11T10:28:23.109Z,99.90
2023-01-11T10:32:54.203Z,99.90
2023-01-11T10:37:18.682Z,99.90
2023-01-11T10:41:33.773Z,99.90
2023-01-11T10:45:43.335Z,99.90
2023-01-11T10:49:51.411Z,99.90
2023-01-11T10:58:18.393Z,99.90
2023-01-11T11:02:40.519Z,99.90
2023-01-11T11:06:52.388Z,99.90
2023-01-11T11:11:00.720Z,99.90
2023-01-11T11:15:11.035Z,99.90
2023-01-11T11:19:20.921Z,99.90
2023-01-11T11:23:25.528Z,99.90
2023-01-11T11:27:31.430Z,99.90
2023-01-11T11:31:37.294Z,99.90
2023-01-11T11:35:43.908Z,99.90
2023-01-11T11:39:50.065Z,99.90
2023-01-11T11:43:52.836Z,99.90
2023-01-11T11:48:03.738Z,99.90
2023-01-11T11:52:12.430Z,99.90
2023-01-11T11:56:18.219Z,99.90
2023-01-11T12:00:26.826Z,99.90
2023-01-11T12:04:42.483Z,99.90
2023-01-11T12:08:46.756Z,99.90
2023-01-11T12:12:52.003Z,99.90
2023-01-11T12:16:54.767Z,99.90
2023-01-11T12:20:57.586Z,99.90
2023-01-11T12:25:24.102Z,99.90
2023-01-11T12:29:40.463Z,99.90
2023-01-11T12:33:50.394Z,99.90
2023-01-11T12:38:05.384Z,99.90
2023-01-11T12:42:28.379Z,99.90
2023-01-11T12:46:55.014Z,99.90
2023-01-11T12:51:22.764Z,99.90
2023-01-11T12:55:50.169Z,99.90
2023-01-11T13:00:27.764Z,99.90
2023-01-11T13:04:46.112Z,99.90
2023-01-11T13:08:58.493Z,99.90
2023-01-11T13:13:07.540Z,99.90
2023-01-11T13:17:23.873Z,99.90
2023-01-11T13:21:33.159Z,99.90
2023-01-11T13:25:42.123Z,99.90
2023-01-11T13:29:48.650Z,99.90
2023-01-11T13:33:59.329Z,99.90
2023-01-11T13:38:11.564Z,99.90
2023-01-11T13:42:18.615Z,99.90
2023-01-11T13:46:41.518Z,99.90
2023-01-11T13:51:04.578Z,99.90
2023-01-11T13:55:20.974Z,99.90
2023-01-11T13:59:31.999Z,99.90
2023-01-11T14:03:45.427Z,99.90
2023-01-11T14:08:05.253Z,99.90
2023-01-11T14:12:15.981Z,99.90
2023-01-11T14:16:24.920Z,99.90
2023-01-11T14:20:34.091Z,99.90
2023-01-11T14:24:42.001Z,99.90
2023-01-11T14:29:00.628Z,99.90
2023-01-11T14:33:40.341Z,99.90
2023-01-11T14:38:22.426Z,99.90
2023-01-11T14:43:04.229Z,99.90
2023-01-11T14:47:37.964Z,99.90
2023-01-11T14:51:57.447Z,99.90
2023-01-11T14:56:00.219Z,99.90
2023-01-11T15:00:05.841Z,99.90
2023-01-11T15:04:21.997Z,99.90
2023-01-11T15:08:27.305Z,99.90
2023-01-11T15:12:35.138Z,99.90
2023-01-11T15:16:57.807Z,99.90
2023-01-11T15:21:05.650Z,99.90
2023-01-11T15:25:25.262Z,99.90
2023-01-11T15:29:31.013Z,99.90
2023-01-11T15:33:48.219Z,99.90
2023-01-11T15:37:55.192Z,99.90
2023-01-11T15:42:18.318Z,99.90
2023-01-11T15:46:54.061Z,99.90
2023-01-11T15:51:37.074Z,99.90
2023-01-11T15:56:22.037Z,99.90
2023-01-11T16:00:47.741Z,99.90
2023-01-11T16:04:54.441Z,99.90
2023-01-11T16:09:07.576Z,99.90
2023-01-11T16:13:30.597Z,99.90
2023-01-11T16:17:33.923Z,99.90
2023-01-11T16:21:39.360Z,99.90
2023-01-11T16:25:45.599Z,99.70
2023-01-11T16:29:50.964Z,99.70
2023-01-11T16:33:54.240Z,99.70
2023-01-11T16:38:01.404Z,99.70
2023-01-11T16:42:07.593Z,99.90
2023-01-11T16:46:36.369Z,99.90
2023-01-11T16:50:48.429Z,99.90
2023-01-11T16:54:51.194Z,99.80
2023-01-11T16:59:07.338Z,99.70
2023-01-11T17:03:25.188Z,99.70
2023-01-11T17:07:29.746Z,99.40
2023-01-11T17:11:37.771Z,99.40
2023-01-11T17:15:52.882Z,99.40
2023-01-11T17:19:59.040Z,99.40
2023-01-11T17:24:04.452Z,99.30
2023-01-11T17:28:14.564Z,99.40
2023-01-11T17:32:29.279Z,99.50
2023-01-11T17:36:34.365Z,99.50
2023-01-11T17:40:40.367Z,99.50
2023-01-11T17:45:01.480Z,99.50
2023-01-11T17:49:05.916Z,99.40
2023-01-11T17:53:16.882Z,99.20
2023-01-11T17:57:20.111Z,99.20
2023-01-11T18:01:24.983Z,99.30
2023-01-11T18:05:30.702Z,99.40
2023-01-11T18:09:37.176Z,99.40
2023-01-11T18:13:40.182Z,99.50
2023-01-11T18:17:42.927Z,99.60
2023-01-11T18:27:28.842Z,99.30
2023-01-11T18:31:32.066Z,99.20
2023-01-11T18:35:43.861Z,99.10
2023-01-11T18:39:46.778Z,99.10
2023-01-11T18:43:51.241Z,99.00
2023-01-11T18:47:54.471Z,98.90
2023-01-11T18:51:57.564Z,98.70
2023-01-11T18:56:00.992Z,98.40
2023-01-11T19:00:11.649Z,98.30
2023-01-11T19:04:20.653Z,98.20
2023-01-11T19:08:24.020Z,98.00
2023-01-11T19:12:29.893Z,98.00
2023-01-11T19:21:09.275Z,98.00
2023-01-11T19:25:13.054Z,98.10
2023-01-11T19:29:17.972Z,98.10
2023-01-11T19:33:22.392Z,98.00
2023-01-11T19:37:25.804Z,97.90
2023-01-11T19:41:48.884Z,97.80
2023-01-11T19:45:56.715Z,97.70
2023-01-11T19:50:01.395Z,97.70
2023-01-11T19:54:06.169Z,97.60
2023-01-11T19:58:09.371Z,97.50
2023-01-11T20:02:13.910Z,97.40
2023-01-11T20:06:21.569Z,97.50
2023-01-11T20:10:24.724Z,97.40
2023-01-11T20:14:28.257Z,97.50
2023-01-11T20:18:31.486Z,97.50
2023-01-11T20:22:36.184Z,97.50
2023-01-11T20:26:39.555Z,97.40
2023-01-11T20:30:42.983Z,97.40
2023-01-11T20:34:46.045Z,97.40
2023-01-11T20:38:50.800Z,97.50
2023-01-11T20:42:54.164Z,97.50
2023-01-11T20:46:57.872Z,97.60
2023-01-11T20:51:04.599Z,97.50
2023-01-11T20:55:10.585Z,97.30
2023-01-11T20:59:20.095Z,97.40
2023-01-11T21:03:31.365Z,97.40
2023-01-11T21:07:35.204Z,97.30
2023-01-11T21:11:40.707Z,97.10
2023-01-11T21:20:07.972Z,96.70
2023-01-11T21:24:17.072Z,96.50
2023-01-11T21:28:21.285Z,96.30
2023-01-11T21:32:42.675Z,96.20
2023-01-11T21:36:46.138Z,96.20
2023-01-11T21:41:04.083Z,96.20
2023-01-11T21:45:12.668Z,96.30
2023-01-11T21:49:16.092Z,96.20
2023-01-11T21:53:18.963Z,96.20
2023-01-11T21:57:23.951Z,96.00
2023-01-11T22:01:28.920Z,96.00
2023-01-11T22:05:33.995Z,95.60
2023-01-11T22:09:36.880Z,95.60
2023-01-11T22:13:41.880Z,95.50
2023-01-11T22:17:46.296Z,95.70
2023-01-11T22:21:58.316Z,95.60
2023-01-11T22:26:05.125Z,95.50
2023-01-11T22:30:17.922Z,95.50
2023-01-11T22:34:23.260Z,95.60
2023-01-11T22:38:26.175Z,95.70
2023-01-11T22:42:29.006Z,95.70
2023-01-11T22:46:34.733Z,96.00
2023-01-11T22:50:40.508Z,96.30
2023-01-11T22:54:43.446Z,96.60
2023-01-11T22:58:46.301Z,96.90
2023-01-11T23:02:49.115Z,97.00
2023-01-11T23:06:53.301Z,97.20
2023-01-11T23:10:59.637Z,97.30
2023-01-11T23:15:02.430Z,97.30
2023-01-11T23:19:06.599Z,97.70
2023-01-11T23:23:11.212Z,97.90
2023-01-11T23:27:14.039Z,98.30
2023-01-11T23:31:18.685Z,98.40
2023-01-11T23:35:21.689Z,98.50
2023-01-11T23:39:25.920Z,98.60
2023-01-11T23:43:28.653Z,98.80
2023-01-11T23:47:31.483Z,98.40
2023-01-11T23:51:45.474Z,98.20
2023-01-11T23:55:56.581Z,98.30
2023-01-11T23:59:59.482Z,98.10
